createdAt,value
2022-12-20T00:01:30.212Z,4.17
2022-12-20T00:04:02.457Z,4.87
2022-12-20T00:06:30.002Z,5.47
2022-12-20T00:09:00.103Z,7.77
2022-12-20T00:11:28.237Z,4.07
2022-12-20T00:13:55.370Z,2.60
2022-12-20T00:16:25.953Z,2.57
2022-12-20T00:19:03.730Z,4.03
2022-12-20T00:21:32.456Z,2.40
2022-12-20T00:23:59.773Z,3.33
2022-12-20T00:26:30.156Z,2.63
2022-12-20T00:28:57.324Z,5.17
2022-12-20T00:31:37.231Z,3.23
2022-12-20T00:34:05.028Z,3.43
2022-12-20T00:36:33.459Z,2.83
2022-12-20T00:39:01.001Z,3.70
2022-12-20T00:41:31.406Z,3.83
2022-12-20T00:43:58.494Z,3.33
2022-12-20T00:46:25.850Z,2.73
2022-12-20T00:48:54.030Z,3.07
2022-12-20T00:51:24.686Z,3.30
2022-12-20T00:53:51.778Z,3.33
2022-12-20T00:56:19.604Z,5.53
2022-12-20T00:58:46.701Z,4.30
2022-12-20T01:01:25.690Z,2.13
2022-12-20T01:03:53.577Z,4.50
2022-12-20T01:06:21.373Z,4.13
2022-12-20T01:08:48.292Z,2.83
2022-12-20T01:11:16.541Z,3.47
2022-12-20T01:13:46.151Z,2.13
2022-12-20T01:16:22.764Z,2.23
2022-12-20T01:18:57.876Z,2.10
2022-12-20T01:21:26.589Z,2.47
2022-12-20T01:23:53.781Z,2.73
2022-12-20T01:26:23.293Z,5.30
2022-12-20T01:28:54.200Z,5.47
2022-12-20T01:31:21.345Z,2.30
2022-12-20T01:33:49.565Z,2.07
2022-12-20T01:36:22.407Z,2.03
2022-12-20T01:38:49.204Z,2.87
2022-12-20T01:41:18.490Z,3.80
2022-12-20T01:43:48.040Z,2.07
2022-12-20T01:46:15.628Z,3.13
2022-12-20T01:48:46.514Z,3.27
2022-12-20T01:51:13.831Z,4.37
2022-12-20T01:53:40.776Z,4.40
2022-12-20T01:56:09.282Z,5.43
2022-12-20T01:58:40.290Z,2.67
2022-12-20T02:01:07.448Z,2.27
2022-12-20T02:03:34.373Z,2.33
2022-12-20T02:06:15.475Z,3.67
2022-12-20T02:08:43.312Z,3.23
2022-12-20T02:11:31.522Z,3.33
2022-12-20T02:14:21.345Z,3.33
2022-12-20T02:17:02.757Z,3.37
2022-12-20T02:19:41.635Z,2.63
2022-12-20T02:22:24.168Z,2.53
2022-12-20T02:25:08.768Z,3.90
2022-12-20T02:27:59.954Z,2.60
2022-12-20T02:30:32.978Z,2.43
2022-12-20T02:33:06.295Z,3.93
2022-12-20T02:35:35.510Z,3.57
2022-12-20T02:38:23.956Z,4.63
2022-12-20T02:40:56.792Z,2.43
2022-12-20T02:43:45.704Z,2.40
2022-12-20T02:46:13.560Z,5.33
2022-12-20T02:48:41.349Z,3.47
2022-12-20T02:51:09.641Z,3.23
2022-12-20T02:53:38.444Z,2.93
2022-12-20T02:56:05.280Z,3.43
2022-12-20T02:58:49.331Z,3.23
2022-12-20T03:01:30.898Z,4.93
2022-12-20T03:03:59.266Z,3.93
2022-12-20T03:06:26.398Z,6.13
2022-12-20T03:08:53.159Z,3.67
2022-12-20T03:11:20.555Z,4.53
2022-12-20T03:13:47.386Z,4.80
2022-12-20T03:16:14.453Z,4.33
2022-12-20T03:18:41.563Z,5.87
2022-12-20T03:21:08.430Z,4.90
2022-12-20T03:23:35.229Z,4.47
2022-12-20T03:26:02.053Z,4.07
2022-12-20T03:28:32.877Z,4.30
2022-12-20T03:30:59.751Z,6.23
2022-12-20T03:33:26.624Z,4.70
2022-12-20T03:35:53.437Z,4.73
2022-12-20T03:38:20.225Z,4.90
2022-12-20T03:40:47.028Z,5.20
2022-12-20T03:43:13.950Z,4.97
2022-12-20T03:45:40.803Z,5.47
2022-12-20T03:48:07.564Z,5.07
2022-12-20T03:50:34.515Z,5.23
2022-12-20T03:53:01.833Z,4.53
2022-12-20T03:55:28.899Z,5.50
2022-12-20T03:57:55.734Z,6.17
2022-12-20T04:00:26.203Z,4.97
2022-12-20T04:02:53.252Z,6.40
2022-12-20T04:05:21.296Z,9.37
2022-12-20T04:07:48.218Z,6.87
2022-12-20T04:10:15.155Z,6.13
2022-12-20T04:12:42.048Z,4.83
2022-12-20T04:15:09.544Z,5.50
2022-12-20T04:17:36.367Z,5.70
2022-12-20T04:20:19.344Z,7.93
2022-12-20T04:22:51.709Z,6.03
2022-12-20T04:25:20.789Z,8.13
2022-12-20T04:27:47.611Z,7.40
2022-12-20T04:30:14.910Z,5.60
2022-12-20T04:32:41.765Z,8.47
2022-12-20T04:35:09.007Z,7.43
2022-12-20T04:37:35.939Z,9.67
2022-12-20T04:40:03.220Z,7.50
2022-12-20T04:42:30.060Z,6.93
2022-12-20T04:44:56.882Z,7.33
2022-12-20T04:47:23.833Z,7.87
2022-12-20T04:49:50.626Z,7.67
2022-12-20T04:52:36.293Z,7.40
2022-12-20T04:55:04.861Z,9.43
2022-12-20T04:57:31.674Z,5.97
2022-12-20T04:59:58.513Z,8.47
2022-12-20T05:02:25.409Z,8.40
2022-12-20T05:04:52.370Z,11.00
2022-12-20T05:07:19.131Z,8.83
2022-12-20T05:09:45.964Z,7.27
2022-12-20T05:12:12.791Z,7.27
2022-12-20T05:14:39.572Z,5.13
2022-12-20T05:17:06.437Z,5.83
2022-12-20T05:19:33.189Z,5.70
2022-12-20T05:22:18.723Z,9.10
2022-12-20T05:25:04.228Z,8.43
2022-12-20T05:27:31.045Z,4.90
2022-12-20T05:29:57.836Z,5.30
2022-12-20T05:32:24.621Z,5.63
2022-12-20T05:34:51.413Z,6.63
2022-12-20T05:37:18.462Z,8.83
2022-12-20T05:39:45.272Z,9.33
2022-12-20T05:42:12.351Z,5.97
2022-12-20T05:44:39.170Z,9.10
2022-12-20T05:47:06.912Z,5.77
2022-12-20T05:49:34.598Z,9.53
2022-12-20T05:52:02.637Z,5.83
2022-12-20T05:54:29.604Z,6.30
2022-12-20T05:56:56.435Z,6.20
2022-12-20T05:59:23.342Z,7.63
2022-12-20T06:01:50.623Z,6.00
2022-12-20T06:04:17.549Z,6.27
2022-12-20T06:06:44.398Z,9.97
2022-12-20T06:09:12.084Z,5.63
2022-12-20T06:11:38.869Z,4.83
2022-12-20T06:14:05.652Z,8.47
2022-12-20T06:16:32.587Z,4.73
2022-12-20T06:19:00.676Z,4.23
2022-12-20T06:21:28.586Z,4.63
2022-12-20T06:23:55.438Z,7.13
2022-12-20T06:26:25.319Z,8.40
2022-12-20T06:28:54.567Z,4.50
2022-12-20T06:31:21.467Z,4.10
2022-12-20T06:33:48.568Z,6.80
2022-12-20T06:36:15.405Z,5.73
2022-12-20T06:38:42.558Z,5.37
2022-12-20T06:41:09.352Z,5.77
2022-12-20T06:43:36.187Z,6.73
2022-12-20T06:46:03.044Z,3.93
2022-12-20T06:48:30.284Z,5.40
2022-12-20T06:50:57.972Z,4.30
2022-12-20T06:53:25.026Z,7.27
2022-12-20T06:55:52.193Z,8.50
2022-12-20T06:58:19.949Z,5.17
2022-12-20T07:00:47.568Z,5.23
2022-12-20T07:03:14.558Z,11.07
2022-12-20T07:05:41.972Z,4.40
2022-12-20T07:08:09.457Z,5.20
2022-12-20T07:10:37.679Z,6.53
2022-12-20T07:13:04.595Z,4.37
2022-12-20T07:15:31.619Z,5.03
2022-12-20T07:17:59.437Z,9.97
2022-12-20T07:20:26.272Z,3.87
2022-12-20T07:22:53.070Z,3.77
2022-12-20T07:25:19.933Z,4.13
2022-12-20T07:27:50.217Z,3.83
2022-12-20T07:30:19.080Z,5.07
2022-12-20T07:32:46.129Z,6.60
2022-12-20T07:35:14.425Z,4.03
2022-12-20T07:37:41.882Z,4.23
2022-12-20T07:40:11.095Z,4.53
2022-12-20T07:42:41.578Z,4.63
2022-12-20T07:45:13.290Z,6.13
2022-12-20T07:47:40.304Z,4.77
2022-12-20T07:50:07.986Z,4.60
2022-12-20T07:52:35.612Z,5.13
2022-12-20T07:55:07.141Z,3.87
2022-12-20T07:57:49.515Z,5.43
2022-12-20T08:00:18.760Z,3.37
2022-12-20T08:02:57.353Z,5.10
2022-12-20T08:05:24.540Z,4.47
2022-12-20T08:07:58.688Z,3.00
2022-12-20T08:10:26.630Z,3.20
2022-12-20T08:12:53.722Z,3.20
2022-12-20T08:15:23.056Z,4.43
2022-12-20T08:17:50.535Z,5.43
2022-12-20T08:20:18.437Z,3.77
2022-12-20T08:22:45.548Z,5.77
2022-12-20T08:25:12.785Z,3.33
2022-12-20T08:27:39.605Z,4.20
2022-12-20T08:30:08.567Z,4.83
2022-12-20T08:32:36.338Z,2.70
2022-12-20T08:35:04.547Z,4.00
2022-12-20T08:37:31.502Z,5.03
2022-12-20T08:39:58.409Z,5.20
2022-12-20T08:42:27.920Z,4.03
2022-12-20T08:45:01.151Z,3.53
2022-12-20T08:47:30.656Z,5.77
2022-12-20T08:49:57.595Z,7.43
2022-12-20T08:52:24.428Z,4.63
2022-12-20T08:54:51.939Z,3.37
2022-12-20T08:57:18.828Z,3.37
2022-12-20T08:59:45.832Z,3.27
2022-12-20T09:02:13.070Z,2.40
2022-12-20T09:04:40.096Z,4.40
2022-12-20T09:07:06.952Z,3.40
2022-12-20T09:09:33.780Z,3.33
2022-12-20T09:12:00.930Z,3.30
2022-12-20T09:14:27.777Z,4.87
2022-12-20T09:16:54.657Z,3.80
2022-12-20T09:19:21.642Z,3.93
2022-12-20T09:21:48.444Z,3.67
2022-12-20T09:24:15.478Z,3.10
2022-12-20T09:26:42.351Z,3.33
2022-12-20T09:29:12.531Z,3.07
2022-12-20T09:31:39.513Z,3.03
2022-12-20T09:34:06.624Z,4.00
2022-12-20T09:36:33.606Z,7.40
2022-12-20T09:39:00.514Z,3.50
2022-12-20T09:41:40.571Z,3.90
2022-12-20T09:44:29.661Z,5.23
2022-12-20T09:47:06.589Z,3.50
2022-12-20T09:49:41.336Z,6.13
2022-12-20T09:52:20.034Z,4.27
2022-12-20T09:55:02.316Z,3.63
2022-12-20T09:57:53.679Z,4.07
2022-12-20T10:00:21.369Z,6.80
2022-12-20T10:03:04.218Z,4.07
2022-12-20T10:05:54.216Z,5.73
2022-12-20T10:08:41.706Z,3.53
2022-12-20T10:11:14.563Z,3.43
2022-12-20T10:14:12.783Z,5.90
2022-12-20T10:16:45.511Z,3.37
2022-12-20T10:19:34.865Z,5.67
2022-12-20T10:22:01.704Z,7.27
2022-12-20T10:24:31.956Z,4.67
2022-12-20T10:27:15.960Z,5.17
2022-12-20T10:29:43.728Z,4.57
2022-12-20T10:32:22.521Z,4.00
2022-12-20T10:35:15.462Z,9.77
2022-12-20T10:38:08.470Z,5.07
2022-12-20T10:43:42.670Z,4.83
2022-12-20T10:46:10.712Z,2.77
2022-12-20T10:48:42.669Z,3.00
2022-12-20T10:51:15.546Z,3.33
2022-12-20T10:53:55.245Z,5.40
2022-12-20T10:56:22.590Z,3.53
2022-12-20T10:59:15.306Z,6.50
2022-12-20T11:01:46.078Z,5.33
2022-12-20T11:04:33.617Z,4.77
2022-12-20T11:07:03.397Z,3.70
2022-12-20T11:09:36.026Z,3.90
2022-12-20T11:12:16.763Z,3.27
2022-12-20T11:14:47.710Z,5.67
2022-12-20T11:17:14.630Z,4.60
2022-12-20T11:19:44.621Z,5.10
2022-12-20T11:22:30.194Z,5.60
2022-12-20T11:25:08.577Z,3.43
2022-12-20T11:28:15.723Z,4.87
2022-12-20T11:30:57.572Z,5.10
2022-12-20T11:33:52.355Z,3.83
2022-12-20T11:36:31.117Z,5.30
2022-12-20T11:39:15.640Z,6.57
2022-12-20T11:41:49.181Z,3.40
2022-12-20T11:44:40.107Z,3.57
2022-12-20T11:47:35.123Z,2.87
2022-12-20T11:50:17.457Z,6.07
2022-12-20T11:52:44.267Z,5.57
2022-12-20T11:55:20.732Z,6.63
2022-12-20T11:58:16.809Z,5.50
2022-12-20T12:00:36.895Z,3.83
2022-12-20T12:03:21.825Z,5.63
2022-12-20T12:05:56.074Z,3.83
2022-12-20T12:08:50.454Z,6.67
2022-12-20T12:12:09.163Z,4.53
2022-12-20T12:15:22.638Z,5.37
2022-12-20T12:18:03.164Z,5.07
2022-12-20T12:20:52.169Z,4.23
2022-12-20T12:23:31.593Z,5.20
2022-12-20T12:26:20.708Z,7.30
2022-12-20T12:29:01.963Z,3.73
2022-12-20T12:31:51.618Z,5.27
2022-12-20T12:34:39.656Z,3.57
2022-12-20T12:37:28.537Z,5.13
2022-12-20T12:40:16.983Z,4.07
2022-12-20T12:43:23.243Z,5.50
2022-12-20T12:45:52.086Z,4.30
2022-12-20T12:48:42.631Z,4.97
2022-12-20T12:51:11.305Z,6.43
2022-12-20T12:53:52.970Z,5.17
2022-12-20T12:56:45.968Z,6.40
2022-12-20T12:59:13.566Z,53.70
2022-12-20T13:01:52.074Z,7.83
2022-12-20T13:04:21.734Z,3.33
2022-12-20T13:06:48.535Z,13.00
2022-12-20T13:09:22.581Z,5.63
2022-12-20T13:11:55.504Z,5.80
2022-12-20T13:14:27.695Z,9.13
2022-12-20T13:17:20.741Z,9.90
2022-12-20T13:19:55.416Z,6.40
2022-12-20T13:22:25.805Z,9.80
2022-12-20T13:24:57.317Z,9.90
2022-12-20T13:27:30.081Z,8.97
2022-12-20T13:29:57.000Z,13.27
2022-12-20T13:32:50.688Z,8.07
2022-12-20T13:35:27.195Z,7.43
2022-12-20T13:38:06.319Z,6.00
2022-12-20T13:40:49.416Z,6.80
2022-12-20T13:43:22.321Z,10.13
2022-12-20T13:46:09.553Z,10.43
2022-12-20T13:48:53.576Z,11.77
2022-12-20T13:51:26.959Z,14.23
2022-12-20T13:54:01.979Z,12.97
2022-12-20T13:56:28.996Z,10.37
2022-12-20T13:59:07.630Z,8.87
2022-12-20T14:01:36.202Z,8.60
2022-12-20T14:04:07.388Z,9.57
2022-12-20T14:06:35.039Z,9.30
2022-12-20T14:09:01.919Z,6.50
2022-12-20T14:11:28.827Z,6.80
2022-12-20T14:14:03.349Z,6.80
2022-12-20T14:16:32.726Z,7.23
2022-12-20T14:19:03.168Z,6.03
2022-12-20T14:21:30.735Z,6.03
2022-12-20T14:24:00.620Z,9.33
2022-12-20T14:26:40.253Z,12.77
2022-12-20T14:29:12.331Z,7.07
2022-12-20T14:31:43.368Z,10.27
2022-12-20T14:34:13.467Z,11.93
2022-12-20T14:36:45.641Z,5.90
2022-12-20T14:39:32.263Z,8.10
2022-12-20T14:42:09.818Z,6.77
2022-12-20T14:44:36.680Z,13.10
2022-12-20T14:47:24.733Z,16.70
2022-12-20T14:50:05.848Z,10.23
2022-12-20T14:52:32.616Z,6.33
2022-12-20T14:55:08.255Z,9.27
2022-12-20T14:57:36.541Z,6.67
2022-12-20T15:00:12.476Z,8.23
2022-12-20T15:03:00.766Z,13.87
2022-12-20T15:05:34.116Z,9.63
2022-12-20T15:08:32.920Z,7.50
2022-12-20T15:11:08.827Z,9.97
2022-12-20T15:13:42.568Z,14.67
2022-12-20T15:16:22.573Z,7.73
2022-12-20T15:18:51.659Z,9.20
2022-12-20T15:21:24.299Z,8.63
2022-12-20T15:23:52.670Z,6.37
2022-12-20T15:26:23.184Z,9.27
2022-12-20T15:28:50.359Z,10.37
2022-12-20T15:31:18.807Z,6.67
2022-12-20T15:33:46.424Z,10.73
2022-12-20T15:36:16.381Z,11.53
2022-12-20T15:39:14.189Z,8.17
2022-12-20T15:41:33.931Z,16.77
2022-12-20T15:44:06.242Z,10.65
2022-12-20T15:46:33.367Z,8.87
2022-12-20T15:49:00.235Z,8.17
2022-12-20T15:51:36.637Z,11.60
2022-12-20T15:54:07.846Z,7.67
2022-12-20T15:56:34.646Z,10.00
2022-12-20T15:59:05.503Z,6.63
2022-12-20T16:01:48.800Z,9.53
2022-12-20T16:04:38.463Z,9.57
2022-12-20T16:07:12.102Z,7.37
2022-12-20T16:09:39.794Z,8.40
2022-12-20T16:12:18.493Z,8.73
2022-12-20T16:14:45.459Z,7.57
2022-12-20T16:17:16.092Z,7.40
2022-12-20T16:19:43.784Z,7.77
2022-12-20T16:22:17.183Z,7.70
2022-12-20T16:24:48.247Z,9.93
2022-12-20T16:27:15.193Z,7.67
2022-12-20T16:29:42.170Z,8.97
2022-12-20T16:32:15.061Z,10.63
2022-12-20T16:34:41.959Z,5.57
2022-12-20T16:37:08.857Z,6.17
2022-12-20T16:39:35.735Z,6.70
2022-12-20T16:42:02.501Z,10.57
2022-12-20T16:44:29.366Z,8.97
2022-12-20T16:46:56.222Z,7.80
2022-12-20T16:49:23.246Z,7.47
2022-12-20T16:51:50.153Z,11.83
2022-12-20T16:54:22.491Z,6.97
2022-12-20T16:56:55.398Z,9.57
2022-12-20T16:59:25.816Z,10.57
2022-12-20T17:01:55.384Z,8.53
2022-12-20T17:04:38.543Z,10.37
2022-12-20T17:07:39.593Z,6.87
2022-12-20T17:10:10.233Z,12.90
2022-12-20T17:12:37.089Z,8.13
2022-12-20T17:15:04.873Z,7.23
2022-12-20T17:17:31.740Z,9.43
2022-12-20T17:19:59.035Z,9.57
2022-12-20T17:25:32.905Z,13.33
2022-12-20T17:27:59.773Z,10.60
2022-12-20T17:30:26.773Z,16.30
2022-12-20T17:32:54.207Z,14.13
2022-12-20T17:35:25.401Z,8.67
2022-12-20T17:37:55.695Z,12.70
2022-12-20T17:40:24.266Z,8.60
2022-12-20T17:42:51.743Z,19.37
2022-12-20T17:45:30.811Z,11.10
2022-12-20T17:47:58.168Z,14.67
2022-12-20T17:50:26.558Z,11.20
2022-12-20T17:52:54.763Z,15.97
2022-12-20T17:55:23.553Z,11.67
2022-12-20T17:57:50.547Z,11.10
2022-12-20T18:00:20.614Z,11.63
2022-12-20T18:02:47.654Z,10.37
2022-12-20T18:05:15.237Z,13.10
2022-12-20T18:07:42.402Z,20.60
2022-12-20T18:10:10.034Z,13.90
2022-12-20T18:12:37.794Z,10.73
2022-12-20T18:15:07.433Z,10.83
2022-12-20T18:17:34.648Z,7.80
2022-12-20T18:20:01.551Z,12.67
2022-12-20T18:22:28.542Z,10.37
2022-12-20T18:24:55.367Z,9.47
2022-12-20T18:27:27.040Z,11.63
2022-12-20T18:29:57.403Z,11.47
2022-12-20T18:32:24.997Z,6.50
2022-12-20T18:34:51.981Z,12.00
2022-12-20T18:37:18.917Z,10.00
2022-12-20T18:39:45.800Z,20.90
2022-12-20T18:42:12.684Z,13.00
2022-12-20T18:44:40.570Z,11.93
2022-12-20T18:47:07.799Z,10.30
2022-12-20T18:49:35.376Z,13.73
2022-12-20T18:52:02.213Z,13.03
2022-12-20T18:54:30.468Z,9.00
2022-12-20T18:56:58.505Z,14.03
2022-12-20T18:59:26.553Z,14.80
2022-12-20T19:01:53.536Z,10.87
2022-12-20T19:04:24.544Z,9.63
2022-12-20T19:06:51.589Z,9.73
2022-12-20T19:09:18.440Z,12.23
2022-12-20T19:11:45.277Z,12.70
2022-12-20T19:14:12.809Z,12.10
2022-12-20T19:16:40.224Z,13.30
2022-12-20T19:19:10.773Z,12.43
2022-12-20T19:21:40.650Z,12.37
2022-12-20T19:24:08.126Z,10.20
2022-12-20T19:26:36.794Z,13.50
2022-12-20T19:29:05.075Z,14.77
2022-12-20T19:31:34.651Z,12.93
2022-12-20T19:34:05.079Z,11.47
2022-12-20T19:36:36.784Z,16.07
2022-12-20T19:39:06.092Z,11.63
2022-12-20T19:41:34.551Z,11.40
2022-12-20T19:44:02.151Z,11.77
2022-12-20T19:46:30.289Z,14.53
2022-12-20T19:48:59.590Z,12.93
2022-12-20T19:51:28.391Z,13.43
2022-12-20T19:53:56.828Z,11.63
2022-12-20T19:56:26.510Z,12.23
2022-12-20T19:58:55.224Z,12.73
2022-12-20T20:01:25.947Z,13.03
2022-12-20T20:03:57.859Z,15.47
2022-12-20T20:06:26.014Z,12.93
2022-12-20T20:08:52.992Z,11.00
2022-12-20T20:11:21.262Z,13.70
2022-12-20T20:13:48.248Z,20.87
2022-12-20T20:16:21.603Z,14.23
2022-12-20T20:18:49.474Z,13.63
2022-12-20T20:21:22.574Z,12.57
2022-12-20T20:23:51.188Z,15.57
2022-12-20T20:26:21.224Z,18.00
2022-12-20T20:28:48.229Z,16.07
2022-12-20T20:31:17.138Z,12.10
2022-12-20T20:33:44.424Z,14.93
2022-12-20T20:36:14.623Z,16.97
2022-12-20T20:38:41.543Z,12.10
2022-12-20T20:41:08.793Z,10.67
2022-12-20T20:43:38.032Z,16.93
2022-12-20T20:46:06.690Z,12.33
2022-12-20T20:48:34.240Z,23.13
2022-12-20T20:51:01.145Z,13.50
2022-12-20T20:53:33.508Z,19.67
2022-12-20T20:56:05.116Z,13.20
2022-12-20T20:58:32.797Z,17.13
2022-12-20T21:01:01.721Z,11.97
2022-12-20T21:03:30.374Z,12.57
2022-12-20T21:06:34.923Z,18.37
2022-12-20T21:08:44.718Z,15.53
2022-12-20T21:11:11.997Z,14.67
2022-12-20T21:13:39.052Z,14.30
2022-12-20T21:16:11.741Z,16.73
2022-12-20T21:18:38.951Z,18.87
2022-12-20T21:21:10.781Z,12.90
2022-12-20T21:23:38.396Z,15.97
2022-12-20T21:26:05.544Z,13.73
2022-12-20T21:28:32.445Z,15.13
2022-12-20T21:31:04.305Z,15.30
2022-12-20T21:33:31.470Z,17.03
2022-12-20T21:36:00.035Z,20.30
2022-12-20T21:38:29.683Z,16.17
2022-12-20T21:41:05.441Z,16.33
2022-12-20T21:43:32.548Z,15.07
2022-12-20T21:46:01.080Z,17.33
2022-12-20T21:48:31.467Z,17.10
2022-12-20T21:51:03.331Z,17.70
2022-12-20T21:53:31.578Z,20.40
2022-12-20T21:56:00.149Z,17.33
2022-12-20T21:58:31.155Z,16.17
2022-12-20T22:00:58.517Z,18.43
2022-12-20T22:03:26.529Z,18.67
2022-12-20T22:05:55.639Z,15.60
2022-12-20T22:08:24.288Z,18.13
2022-12-20T22:11:07.576Z,16.37
2022-12-20T22:13:40.699Z,18.50
2022-12-20T22:16:13.865Z,17.73
2022-12-20T22:18:42.281Z,13.70
2022-12-20T22:21:11.605Z,16.57
2022-12-20T22:23:38.999Z,16.37
2022-12-20T22:26:08.168Z,13.93
2022-12-20T22:28:35.336Z,16.97
2022-12-20T22:31:11.751Z,13.23
2022-12-20T22:33:39.245Z,17.67
2022-12-20T22:36:08.624Z,18.80
2022-12-20T22:38:35.901Z,25.37
2022-12-20T22:41:14.779Z,15.20
2022-12-20T22:43:44.665Z,17.50
2022-12-20T22:46:12.903Z,12.93
2022-12-20T22:48:40.879Z,16.23
2022-12-20T22:51:16.455Z,14.53
2022-12-20T22:53:44.085Z,16.87
2022-12-20T22:56:11.622Z,13.87
2022-12-20T22:58:42.950Z,16.17
2022-12-20T23:01:13.069Z,18.10
2022-12-20T23:03:41.481Z,13.83
2022-12-20T23:06:11.398Z,15.83
2022-12-20T23:08:38.598Z,14.80
2022-12-20T23:11:34.389Z,15.63
2022-12-20T23:14:20.006Z,14.47
2022-12-20T23:16:47.030Z,14.77
2022-12-20T23:19:13.965Z,16.67
2022-12-20T23:21:59.382Z,15.30
2022-12-20T23:24:27.064Z,14.00
2022-12-20T23:26:53.906Z,14.77
2022-12-20T23:29:20.734Z,16.97
2022-12-20T23:31:47.665Z,16.50
2022-12-20T23:34:14.564Z,16.50
2022-12-20T23:36:41.383Z,15.50
2022-12-20T23:39:08.488Z,15.17
2022-12-20T23:41:35.399Z,14.73
2022-12-20T23:44:07.458Z,16.90
2022-12-20T23:46:34.643Z,17.97
2022-12-20T23:49:01.518Z,15.87
2022-12-20T23:51:29.081Z,16.40
2022-12-20T23:53:55.952Z,16.13
2022-12-20T23:56:23.398Z,17.00
2022-12-20T23:58:53.276Z,17.70
